sensor_id;sensor_type;location;lat;lon;timestamp;pressure;altitude;pressure_sealevel;temperature;humidity
47054;BME280;32811;52.382;5.270;2023-04-26T00:00:30;102010.78;;;3.01;100.00
47054;BME280;32811;52.382;5.270;2023-04-26T00:02:57;102021.00;;;3.01;100.00
47054;BME280;32811;52.382;5.270;2023-04-26T00:05:26;102015.72;;;2.98;100.00
47054;BME280;32811;52.382;5.270;2023-04-26T00:07:53;101948.69;;;2.53;100.00
47054;BME280;32811;52.382;5.270;2023-04-26T00:10:23;101986.97;;;2.69;100.00
47054;BME280;32811;52.382;5.270;2023-04-26T00:12:50;102023.66;;;2.88;100.00
47054;BME280;32811;52.382;5.270;2023-04-26T00:15:17;102006.91;;;2.77;100.00
47054;BME280;32811;52.382;5.270;2023-04-26T00:17:43;102016.31;;;2.78;100.00
47054;BME280;32811;52.382;5.270;2023-04-26T00:20:10;102002.25;;;2.69;100.00
47054;BME280;32811;52.382;5.270;2023-04-26T00:22:39;102016.84;;;2.72;100.00
47054;BME280;32811;52.382;5.270;2023-04-26T00:25:06;102018.28;;;2.67;100.00
47054;BME280;32811;52.382;5.270;2023-04-26T00:27:33;102023.22;;;2.64;100.00
47054;BME280;32811;52.382;5.270;2023-04-26T00:30:00;102019.69;;;2.62;100.00
47054;BME280;32811;52.382;5.270;2023-04-26T00:32:26;102021.38;;;2.61;100.00
47054;BME280;32811;52.382;5.270;2023-04-26T00:34:53;102017.66;;;2.56;100.00
47054;BME280;32811;52.382;5.270;2023-04-26T00:37:20;102016.00;;;2.57;100.00
47054;BME280;32811;52.382;5.270;2023-04-26T00:39:47;101984.13;;;2.34;100.00
47054;BME280;32811;52.382;5.270;2023-04-26T00:42:13;102014.63;;;2.47;100.00
47054;BME280;32811;52.382;5.270;2023-04-26T00:44:40;101999.88;;;2.41;100.00
47054;BME280;32811;52.382;5.270;2023-04-26T00:47:07;101991.88;;;2.35;100.00
47054;BME280;32811;52.382;5.270;2023-04-26T00:49:34;101977.56;;;2.22;100.00
47054;BME280;32811;52.382;5.270;2023-04-26T00:52:01;102009.97;;;2.40;100.00
47054;BME280;32811;52.382;5.270;2023-04-26T00:54:30;102010.59;;;2.36;100.00
47054;BME280;32811;52.382;5.270;2023-04-26T00:56:57;102001.34;;;2.38;100.00
47054;BME280;32811;52.382;5.270;2023-04-26T00:59:25;101990.75;;;2.30;100.00
47054;BME280;32811;52.382;5.270;2023-04-26T01:01:54;102003.66;;;2.33;100.00
47054;BME280;32811;52.382;5.270;2023-04-26T01:04:22;102003.56;;;2.32;100.00
47054;BME280;32811;52.382;5.270;2023-04-26T01:06:54;101993.72;;;2.23;100.00
47054;BME280;32811;52.382;5.270;2023-04-26T01:09:21;101993.56;;;2.20;100.00
47054;BME280;32811;52.382;5.270;2023-04-26T01:11:50;101986.16;;;2.10;100.00
47054;BME280;32811;52.382;5.270;2023-04-26T01:14:18;102000.13;;;2.16;100.00
47054;BME280;32811;52.382;5.270;2023-04-26T01:16:51;102007.59;;;2.13;100.00
47054;BME280;32811;52.382;5.270;2023-04-26T01:19:23;101997.16;;;2.08;100.00
47054;BME280;32811;52.382;5.270;2023-04-26T01:21:52;102010.75;;;2.09;100.00
47054;BME280;32811;52.382;5.270;2023-04-26T01:24:19;102014.28;;;2.11;100.00
47054;BME280;32811;52.382;5.270;2023-04-26T01:26:47;102012.44;;;2.08;100.00
47054;BME280;32811;52.382;5.270;2023-04-26T01:29:19;102006.22;;;2.03;100.00
47054;BME280;32811;52.382;5.270;2023-04-26T01:31:47;102002.00;;;2.04;100.00
47054;BME280;32811;52.382;5.270;2023-04-26T01:34:14;102009.53;;;2.02;100.00
47054;BME280;32811;52.382;5.270;2023-04-26T01:36:41;102005.03;;;1.98;100.00
47054;BME280;32811;52.382;5.270;2023-04-26T01:39:08;102012.69;;;1.98;100.00
47054;BME280;32811;52.382;5.270;2023-04-26T01:41:34;102000.50;;;1.93;100.00
47054;BME280;32811;52.382;5.270;2023-04-26T01:44:02;102004.78;;;1.94;100.00
47054;BME280;32811;52.382;5.270;2023-04-26T01:46:29;102015.22;;;1.98;100.00
47054;BME280;32811;52.382;5.270;2023-04-26T01:48:56;101998.56;;;1.89;100.00
47054;BME280;32811;52.382;5.270;2023-04-26T01:51:23;102011.66;;;1.95;100.00
47054;BME280;32811;52.382;5.270;2023-04-26T01:53:50;102011.53;;;1.93;100.00
47054;BME280;32811;52.382;5.270;2023-04-26T01:56:17;101997.69;;;1.88;100.00
47054;BME280;32811;52.382;5.270;2023-04-26T01:58:44;102001.25;;;1.92;100.00
47054;BME280;32811;52.382;5.270;2023-04-26T02:01:11;101988.09;;;1.84;100.00
47054;BME280;32811;52.382;5.270;2023-04-26T02:03:38;102007.16;;;1.91;100.00
47054;BME280;32811;52.382;5.270;2023-04-26T02:06:05;102008.75;;;1.89;100.00
47054;BME280;32811;52.382;5.270;2023-04-26T02:08:33;101994.06;;;1.84;100.00
47054;BME280;32811;52.382;5.270;2023-04-26T02:11:00;101994.78;;;1.82;100.00
47054;BME280;32811;52.382;5.270;2023-04-26T02:13:27;101985.72;;;1.72;100.00
47054;BME280;32811;52.382;5.270;2023-04-26T02:15:54;101963.38;;;1.53;100.00
47054;BME280;32811;52.382;5.270;2023-04-26T02:18:21;101950.31;;;1.47;100.00
47054;BME280;32811;52.382;5.270;2023-04-26T02:20:49;101994.22;;;1.73;100.00
47054;BME280;32811;52.382;5.270;2023-04-26T02:23:16;101988.00;;;1.68;100.00
47054;BME280;32811;52.382;5.270;2023-04-26T02:25:46;101985.16;;;1.63;100.00
47054;BME280;32811;52.382;5.270;2023-04-26T02:28:14;101999.13;;;1.70;100.00
47054;BME280;32811;52.382;5.270;2023-04-26T02:30:42;102004.22;;;1.70;100.00
47054;BME280;32811;52.382;5.270;2023-04-26T02:33:09;101985.97;;;1.62;100.00
47054;BME280;32811;52.382;5.270;2023-04-26T02:35:36;102004.84;;;1.65;100.00
47054;BME280;32811;52.382;5.270;2023-04-26T02:38:05;102004.66;;;1.62;100.00
47054;BME280;32811;52.382;5.270;2023-04-26T02:40:32;102002.81;;;1.60;100.00
47054;BME280;32811;52.382;5.270;2023-04-26T02:42:59;101985.75;;;1.44;100.00
47054;BME280;32811;52.382;5.270;2023-04-26T02:45:27;101989.38;;;1.48;100.00
47054;BME280;32811;52.382;5.270;2023-04-26T02:47:53;102009.78;;;1.49;100.00
47054;BME280;32811;52.382;5.270;2023-04-26T02:50:20;101970.69;;;1.19;100.00
47054;BME280;32811;52.382;5.270;2023-04-26T02:52:47;101959.34;;;1.14;100.00
47054;BME280;32811;52.382;5.270;2023-04-26T02:55:13;102007.50;;;1.39;100.00
47054;BME280;32811;52.382;5.270;2023-04-26T02:57:40;102010.91;;;1.39;100.00
47054;BME280;32811;52.382;5.270;2023-04-26T03:00:08;101985.34;;;1.23;100.00
47054;BME280;32811;52.382;5.270;2023-04-26T03:02:39;101988.84;;;1.25;100.00
47054;BME280;32811;52.382;5.270;2023-04-26T03:05:10;102000.34;;;1.33;100.00
47054;BME280;32811;52.382;5.270;2023-04-26T03:07:39;101983.47;;;1.20;100.00
47054;BME280;32811;52.382;5.270;2023-04-26T03:10:06;101994.22;;;1.30;100.00
47054;BME280;32811;52.382;5.270;2023-04-26T03:12:33;101968.63;;;1.13;100.00
47054;BME280;32811;52.382;5.270;2023-04-26T03:15:03;101930.09;;;0.92;100.00
47054;BME280;32811;52.382;5.270;2023-04-26T03:17:31;101993.69;;;1.35;100.00
47054;BME280;32811;52.382;5.270;2023-04-26T03:19:59;101983.81;;;1.40;100.00
47054;BME280;32811;52.382;5.270;2023-04-26T03:22:28;101972.75;;;1.39;100.00
47054;BME280;32811;52.382;5.270;2023-04-26T03:24:54;101988.72;;;1.52;100.00
47054;BME280;32811;52.382;5.270;2023-04-26T03:27:25;102004.16;;;1.68;100.00
47054;BME280;32811;52.382;5.270;2023-04-26T03:29:52;102010.94;;;1.97;100.00
47054;BME280;32811;52.382;5.270;2023-04-26T03:32:18;102006.28;;;2.20;100.00
47054;BME280;32811;52.382;5.270;2023-04-26T03:34:45;101989.53;;;2.23;100.00
47054;BME280;32811;52.382;5.270;2023-04-26T03:37:14;101987.66;;;2.21;100.00
47054;BME280;32811;52.382;5.270;2023-04-26T03:39:40;101987.56;;;2.34;100.00
47054;BME280;32811;52.382;5.270;2023-04-26T03:42:07;101992.13;;;2.40;100.00
47054;BME280;32811;52.382;5.270;2023-04-26T03:44:34;101982.09;;;2.43;100.00
47054;BME280;32811;52.382;5.270;2023-04-26T03:47:01;101988.78;;;2.41;100.00
47054;BME280;32811;52.382;5.270;2023-04-26T03:49:30;101956.31;;;2.22;100.00
47054;BME280;32811;52.382;5.270;2023-04-26T03:51:58;101950.72;;;2.13;100.00
47054;BME280;32811;52.382;5.270;2023-04-26T03:54:25;101940.00;;;2.03;100.00
47054;BME280;32811;52.382;5.270;2023-04-26T03:56:52;101989.69;;;2.26;100.00
47054;BME280;32811;52.382;5.270;2023-04-26T03:59:18;101951.50;;;1.97;100.00
47054;BME280;32811;52.382;5.270;2023-04-26T04:01:48;101949.47;;;1.91;100.00
47054;BME280;32811;52.382;5.270;2023-04-26T04:04:15;101983.56;;;2.08;100.00
47054;BME280;32811;52.382;5.270;2023-04-26T04:06:47;101992.78;;;2.06;100.00
47054;BME280;32811;52.382;5.270;2023-04-26T04:09:14;101983.03;;;1.99;100.00
47054;BME280;32811;52.382;5.270;2023-04-26T04:11:42;101992.25;;;1.97;100.00
47054;BME280;32811;52.382;5.270;2023-04-26T04:14:12;101982.66;;;1.93;100.00
47054;BME280;32811;52.382;5.270;2023-04-26T04:16:40;101974.50;;;1.83;100.00
47054;BME280;32811;52.382;5.270;2023-04-26T04:19:10;101976.34;;;1.86;100.00
47054;BME280;32811;52.382;5.270;2023-04-26T04:21:37;101945.63;;;1.68;100.00
47054;BME280;32811;52.382;5.270;2023-04-26T04:24:05;101970.19;;;1.82;100.00
47054;BME280;32811;52.382;5.270;2023-04-26T04:26:32;101982.47;;;1.90;100.00
47054;BME280;32811;52.382;5.270;2023-04-26T04:28:59;101965.69;;;1.78;100.00
47054;BME280;32811;52.382;5.270;2023-04-26T04:31:35;101982.31;;;1.86;100.00
47054;BME280;32811;52.382;5.270;2023-04-26T04:34:02;101978.19;;;1.89;100.00
47054;BME280;32811;52.382;5.270;2023-04-26T04:36:29;101984.16;;;1.89;100.00
47054;BME280;32811;52.382;5.270;2023-04-26T04:38:56;101996.53;;;1.98;100.00
47054;BME280;32811;52.382;5.270;2023-04-26T04:41:23;102001.88;;;2.02;100.00
47054;BME280;32811;52.382;5.270;2023-04-26T04:43:50;101994.25;;;2.02;100.00
47054;BME280;32811;52.382;5.270;2023-04-26T04:46:17;102012.25;;;2.20;100.00
47054;BME280;32811;52.382;5.270;2023-04-26T04:48:43;102007.94;;;2.34;100.00
47054;BME280;32811;52.382;5.270;2023-04-26T04:51:10;102009.41;;;2.45;100.00
47054;BME280;32811;52.382;5.270;2023-04-26T04:53:37;102015.84;;;2.54;100.00
47054;BME280;32811;52.382;5.270;2023-04-26T04:56:04;102008.28;;;2.55;100.00
47054;BME280;32811;52.382;5.270;2023-04-26T04:58:31;102013.53;;;2.58;100.00
47054;BME280;32811;52.382;5.270;2023-04-26T05:00:59;102009.56;;;2.63;100.00
47054;BME280;32811;52.382;5.270;2023-04-26T05:03:26;102000.28;;;2.64;100.00
47054;BME280;32811;52.382;5.270;2023-04-26T05:05:53;102003.94;;;2.69;100.00
47054;BME280;32811;52.382;5.270;2023-04-26T05:08:20;101965.47;;;2.49;100.00
47054;BME280;32811;52.382;5.270;2023-04-26T05:10:47;102002.38;;;2.71;100.00
47054;BME280;32811;52.382;5.270;2023-04-26T05:13:14;102019.84;;;2.80;100.00
47054;BME280;32811;52.382;5.270;2023-04-26T05:15:41;101992.06;;;2.69;100.00
47054;BME280;32811;52.382;5.270;2023-04-26T05:18:07;102001.38;;;2.84;100.00
47054;BME280;32811;52.382;5.270;2023-04-26T05:20:36;102017.31;;;2.96;100.00
47054;BME280;32811;52.382;5.270;2023-04-26T05:23:03;102006.66;;;3.03;100.00
47054;BME280;32811;52.382;5.270;2023-04-26T05:25:35;102015.69;;;3.13;100.00
47054;BME280;32811;52.382;5.270;2023-04-26T05:28:02;101977.09;;;3.07;100.00
47054;BME280;32811;52.382;5.270;2023-04-26T05:30:30;101983.63;;;3.18;100.00
47054;BME280;32811;52.382;5.270;2023-04-26T05:32:57;102010.78;;;3.49;100.00
47054;BME280;32811;52.382;5.270;2023-04-26T05:35:24;102001.56;;;3.52;100.00
47054;BME280;32811;52.382;5.270;2023-04-26T05:37:50;102013.88;;;3.76;100.00
47054;BME280;32811;52.382;5.270;2023-04-26T05:40:17;102005.94;;;3.88;100.00
47054;BME280;32811;52.382;5.270;2023-04-26T05:42:44;102015.00;;;4.15;100.00
47054;BME280;32811;52.382;5.270;2023-04-26T05:45:10;102007.69;;;4.23;100.00
47054;BME280;32811;52.382;5.270;2023-04-26T05:47:37;102017.56;;;4.33;100.00
47054;BME280;32811;52.382;5.270;2023-04-26T05:50:04;101990.25;;;4.32;100.00
47054;BME280;32811;52.382;5.270;2023-04-26T05:52:33;102022.16;;;4.94;100.00
47054;BME280;32811;52.382;5.270;2023-04-26T05:55:00;101970.00;;;5.10;100.00
47054;BME280;32811;52.382;5.270;2023-04-26T05:57:30;102014.03;;;6.00;100.00
47054;BME280;32811;52.382;5.270;2023-04-26T05:59:57;102005.16;;;6.55;100.00
47054;BME280;32811;52.382;5.270;2023-04-26T06:02:24;102004.91;;;6.70;100.00
47054;BME280;32811;52.382;5.270;2023-04-26T06:04:51;101999.81;;;6.94;100.00
47054;BME280;32811;52.382;5.270;2023-04-26T06:07:19;101996.34;;;6.92;100.00
47054;BME280;32811;52.382;5.270;2023-04-26T06:09:46;101996.63;;;6.77;100.00
47054;BME280;32811;52.382;5.270;2023-04-26T06:12:12;102015.03;;;6.67;100.00
47054;BME280;32811;52.382;5.270;2023-04-26T06:14:39;101980.34;;;6.33;100.00
47054;BME280;32811;52.382;5.270;2023-04-26T06:17:06;101990.75;;;6.36;100.00
47054;BME280;32811;52.382;5.270;2023-04-26T06:19:32;102013.19;;;6.42;100.00
47054;BME280;32811;52.382;5.270;2023-04-26T06:21:59;101977.25;;;6.19;100.00
47054;BME280;32811;52.382;5.270;2023-04-26T06:24:25;101983.16;;;6.18;100.00
47054;BME280;32811;52.382;5.270;2023-04-26T06:26:52;101999.94;;;6.31;100.00
47054;BME280;32811;52.382;5.270;2023-04-26T06:29:19;101971.00;;;6.13;100.00
47054;BME280;32811;52.382;5.270;2023-04-26T06:31:46;101969.47;;;6.18;100.00
47054;BME280;32811;52.382;5.270;2023-04-26T06:34:13;102011.38;;;6.39;100.00
47054;BME280;32811;52.382;5.270;2023-04-26T06:36:39;102026.88;;;6.42;100.00
47054;BME280;32811;52.382;5.270;2023-04-26T06:39:06;101999.25;;;6.35;100.00
47054;BME280;32811;52.382;5.270;2023-04-26T06:41:36;102021.69;;;6.62;100.00
47054;BME280;32811;52.382;5.270;2023-04-26T06:44:11;102024.34;;;6.65;100.00
47054;BME280;32811;52.382;5.270;2023-04-26T06:47:21;102019.38;;;6.47;100.00
47054;BME280;32811;52.382;5.270;2023-04-26T06:49:54;102021.94;;;6.47;100.00
47054;BME280;32811;52.382;5.270;2023-04-26T06:52:21;102026.50;;;6.33;100.00
47054;BME280;32811;52.382;5.270;2023-04-26T06:54:49;102015.81;;;6.43;100.00
47054;BME280;32811;52.382;5.270;2023-04-26T06:57:24;102032.56;;;6.56;100.00
47054;BME280;32811;52.382;5.270;2023-04-26T06:59:53;102029.56;;;6.67;100.00
47054;BME280;32811;52.382;5.270;2023-04-26T07:02:21;102036.22;;;6.61;100.00
47054;BME280;32811;52.382;5.270;2023-04-26T07:04:58;102044.34;;;6.72;100.00
47054;BME280;32811;52.382;5.270;2023-04-26T07:07:26;102027.75;;;6.64;100.00
47054;BME280;32811;52.382;5.270;2023-04-26T07:09:55;102038.88;;;6.64;100.00
47054;BME280;32811;52.382;5.270;2023-04-26T07:12:22;102044.25;;;6.71;100.00
47054;BME280;32811;52.382;5.270;2023-04-26T07:14:49;102036.47;;;6.68;100.00
47054;BME280;32811;52.382;5.270;2023-04-26T07:17:17;102029.75;;;6.71;100.00
47054;BME280;32811;52.382;5.270;2023-04-26T07:19:50;102038.78;;;6.84;100.00
47054;BME280;32811;52.382;5.270;2023-04-26T07:22:20;102018.19;;;6.82;100.00
47054;BME280;32811;52.382;5.270;2023-04-26T07:24:51;102019.63;;;6.97;100.00
47054;BME280;32811;52.382;5.270;2023-04-26T07:27:19;102027.53;;;7.03;100.00
47054;BME280;32811;52.382;5.270;2023-04-26T07:29:45;102003.56;;;6.80;100.00
47054;BME280;32811;52.382;5.270;2023-04-26T07:32:19;102030.28;;;7.07;100.00
47054;BME280;32811;52.382;5.270;2023-04-26T07:34:46;102023.28;;;7.26;100.00
47054;BME280;32811;52.382;5.270;2023-04-26T07:37:13;102024.50;;;7.84;100.00
47054;BME280;32811;52.382;5.270;2023-04-26T07:39:39;102006.38;;;7.81;100.00
47054;BME280;32811;52.382;5.270;2023-04-26T07:42:06;102017.31;;;7.99;100.00
47054;BME280;32811;52.382;5.270;2023-04-26T07:44:32;101995.53;;;7.89;100.00
47054;BME280;32811;52.382;5.270;2023-04-26T07:46:59;102000.78;;;8.18;100.00
47054;BME280;32811;52.382;5.270;2023-04-26T07:49:26;102005.97;;;8.20;100.00
47054;BME280;32811;52.382;5.270;2023-04-26T07:52:00;102036.13;;;8.49;100.00
47054;BME280;32811;52.382;5.270;2023-04-26T07:54:28;102033.13;;;8.63;100.00
47054;BME280;32811;52.382;5.270;2023-04-26T07:56:55;101987.06;;;8.19;100.00
47054;BME280;32811;52.382;5.270;2023-04-26T07:59:26;102032.66;;;8.23;100.00
47054;BME280;32811;52.382;5.270;2023-04-26T08:01:53;102042.78;;;8.19;100.00
47054;BME280;32811;52.382;5.270;2023-04-26T08:04:29;102022.63;;;8.05;100.00
47054;BME280;32811;52.382;5.270;2023-04-26T08:06:59;102055.66;;;8.19;100.00
47054;BME280;32811;52.382;5.270;2023-04-26T08:09:28;102055.88;;;8.25;100.00
47054;BME280;32811;52.382;5.270;2023-04-26T08:11:58;102043.50;;;8.66;100.00
47054;BME280;32811;52.382;5.270;2023-04-26T08:14:25;102021.50;;;8.76;100.00
47054;BME280;32811;52.382;5.270;2023-04-26T08:16:52;102029.31;;;8.51;100.00
47054;BME280;32811;52.382;5.270;2023-04-26T08:19:19;102053.75;;;8.91;100.00
47054;BME280;32811;52.382;5.270;2023-04-26T08:21:47;102051.22;;;8.93;100.00
47054;BME280;32811;52.382;5.270;2023-04-26T08:24:14;102014.16;;;8.88;100.00
47054;BME280;32811;52.382;5.270;2023-04-26T08:26:41;102032.78;;;9.08;100.00
47054;BME280;32811;52.382;5.270;2023-04-26T08:29:07;102031.28;;;9.45;100.00
47054;BME280;32811;52.382;5.270;2023-04-26T08:31:34;102040.22;;;9.27;100.00
47054;BME280;32811;52.382;5.270;2023-04-26T08:34:01;102047.28;;;9.34;100.00
47054;BME280;32811;52.382;5.270;2023-04-26T08:36:28;102043.44;;;9.20;100.00
47054;BME280;32811;52.382;5.270;2023-04-26T08:38:55;102021.09;;;8.90;100.00
47054;BME280;32811;52.382;5.270;2023-04-26T08:41:24;102018.50;;;8.90;100.00
47054;BME280;32811;52.382;5.270;2023-04-26T08:43:52;102010.38;;;9.05;100.00
47054;BME280;32811;52.382;5.270;2023-04-26T08:46:21;102008.47;;;9.28;100.00
47054;BME280;32811;52.382;5.270;2023-04-26T08:49:03;102016.75;;;9.48;100.00
47054;BME280;32811;52.382;5.270;2023-04-26T08:51:33;102018.81;;;9.60;100.00
47054;BME280;32811;52.382;5.270;2023-04-26T08:54:03;102016.31;;;9.33;100.00
47054;BME280;32811;52.382;5.270;2023-04-26T08:56:31;102039.69;;;9.71;100.00
47054;BME280;32811;52.382;5.270;2023-04-26T08:58:59;102038.09;;;9.74;95.68
47054;BME280;32811;52.382;5.270;2023-04-26T09:01:28;102018.16;;;9.37;90.54
47054;BME280;32811;52.382;5.270;2023-04-26T09:03:59;102038.63;;;9.32;90.38
47054;BME280;32811;52.382;5.270;2023-04-26T09:06:27;102040.91;;;9.22;95.67
47054;BME280;32811;52.382;5.270;2023-04-26T09:08:54;102024.91;;;9.03;97.29
47054;BME280;32811;52.382;5.270;2023-04-26T09:11:21;102029.66;;;8.89;100.00
47054;BME280;32811;52.382;5.270;2023-04-26T09:13:48;102033.97;;;8.90;100.00
47054;BME280;32811;52.382;5.270;2023-04-26T09:16:15;102035.16;;;9.02;100.00
47054;BME280;32811;52.382;5.270;2023-04-26T09:18:54;102025.41;;;8.91;95.10
47054;BME280;32811;52.382;5.270;2023-04-26T09:21:24;102006.66;;;8.96;98.00
47054;BME280;32811;52.382;5.270;2023-04-26T09:23:59;102041.00;;;9.25;97.78
47054;BME280;32811;52.382;5.270;2023-04-26T09:26:29;102042.78;;;9.27;95.56
47054;BME280;32811;52.382;5.270;2023-04-26T09:29:18;102034.84;;;9.50;99.51
47054;BME280;32811;52.382;5.270;2023-04-26T09:31:47;102037.06;;;9.68;90.79
47054;BME280;32811;52.382;5.270;2023-04-26T09:34:15;102031.03;;;9.67;88.44
47054;BME280;32811;52.382;5.270;2023-04-26T09:36:49;102038.03;;;9.73;88.18
47054;BME280;32811;52.382;5.270;2023-04-26T09:39:35;102033.38;;;9.58;96.90
47054;BME280;32811;52.382;5.270;2023-04-26T09:42:03;102043.94;;;9.67;95.54
47054;BME280;32811;52.382;5.270;2023-04-26T09:44:30;102047.28;;;9.34;92.98
47054;BME280;32811;52.382;5.270;2023-04-26T09:47:05;102009.50;;;9.05;93.78
47054;BME280;32811;52.382;5.270;2023-04-26T09:49:42;102019.94;;;9.09;100.00
47054;BME280;32811;52.382;5.270;2023-04-26T09:52:09;102038.06;;;10.39;100.00
47054;BME280;32811;52.382;5.270;2023-04-26T09:54:41;102039.31;;;11.33;90.67
47054;BME280;32811;52.382;5.270;2023-04-26T09:57:10;102037.59;;;10.92;91.34
47054;BME280;32811;52.382;5.270;2023-04-26T09:59:47;102015.84;;;10.11;89.57
47054;BME280;32811;52.382;5.270;2023-04-26T10:04:47;102043.06;;;9.37;100.00
47054;BME280;32811;52.382;5.270;2023-04-26T10:07:15;102057.91;;;8.86;100.00
47054;BME280;32811;52.382;5.270;2023-04-26T10:09:43;102051.13;;;8.63;100.00
47054;BME280;32811;52.382;5.270;2023-04-26T10:12:15;102057.16;;;8.38;100.00
47054;BME280;32811;52.382;5.270;2023-04-26T10:14:43;102050.13;;;8.06;100.00
47054;BME280;32811;52.382;5.270;2023-04-26T10:17:10;102045.31;;;7.92;100.00
47054;BME280;32811;52.382;5.270;2023-04-26T10:19:42;102057.53;;;7.73;100.00
47054;BME280;32811;52.382;5.270;2023-04-26T10:22:15;102009.28;;;7.18;100.00
47054;BME280;32811;52.382;5.270;2023-04-26T10:24:44;102060.53;;;7.39;100.00
47054;BME280;32811;52.382;5.270;2023-04-26T10:27:11;102051.88;;;7.35;100.00
47054;BME280;32811;52.382;5.270;2023-04-26T10:32:20;102037.91;;;7.28;100.00
47054;BME280;32811;52.382;5.270;2023-04-26T10:35:12;102051.34;;;7.44;100.00
47054;BME280;32811;52.382;5.270;2023-04-26T10:43:26;102029.78;;;7.64;100.00
47054;BME280;32811;52.382;5.270;2023-04-26T10:45:53;102050.06;;;7.81;100.00
47054;BME280;32811;52.382;5.270;2023-04-26T10:48:30;102044.59;;;7.96;100.00
47054;BME280;32811;52.382;5.270;2023-04-26T10:59:13;102035.34;;;8.79;100.00
47054;BME280;32811;52.382;5.270;2023-04-26T11:01:43;102038.75;;;9.35;100.00
47054;BME280;32811;52.382;5.270;2023-04-26T11:04:11;102030.91;;;9.63;100.00
47054;BME280;32811;52.382;5.270;2023-04-26T11:06:51;102039.03;;;10.10;100.00
47054;BME280;32811;52.382;5.270;2023-04-26T11:09:38;102033.75;;;10.05;97.65
47054;BME280;32811;52.382;5.270;2023-04-26T11:12:15;102030.44;;;9.77;100.00
47054;BME280;32811;52.382;5.270;2023-04-26T11:14:43;102025.09;;;9.70;95.26
47054;BME280;32811;52.382;5.270;2023-04-26T11:17:11;102005.03;;;9.91;92.22
47054;BME280;32811;52.382;5.270;2023-04-26T11:19:40;102018.97;;;10.33;91.28
47054;BME280;32811;52.382;5.270;2023-04-26T11:22:07;102013.97;;;10.39;92.23
47054;BME280;32811;52.382;5.270;2023-04-26T11:24:34;102003.81;;;10.45;88.27
47054;BME280;32811;52.382;5.270;2023-04-26T11:27:08;102010.81;;;10.51;82.70
47054;BME280;32811;52.382;5.270;2023-04-26T11:29:36;102012.03;;;10.65;92.46
47054;BME280;32811;52.382;5.270;2023-04-26T11:32:03;101976.16;;;10.79;91.18
47054;BME280;32811;52.382;5.270;2023-04-26T11:34:31;102006.50;;;10.51;78.25
47054;BME280;32811;52.382;5.270;2023-04-26T11:36:58;102008.34;;;10.21;75.51
47054;BME280;32811;52.382;5.270;2023-04-26T11:39:25;101982.19;;;10.07;88.25
47054;BME280;32811;52.382;5.270;2023-04-26T11:42:03;101989.06;;;10.06;88.95
47054;BME280;32811;52.382;5.270;2023-04-26T11:44:30;101976.63;;;9.90;86.00
47054;BME280;32811;52.382;5.270;2023-04-26T11:46:57;102004.31;;;9.97;83.67
47054;BME280;32811;52.382;5.270;2023-04-26T11:49:24;101974.84;;;9.89;84.52
47054;BME280;32811;52.382;5.270;2023-04-26T11:51:52;102007.22;;;9.77;85.53
47054;BME280;32811;52.382;5.270;2023-04-26T11:54:29;102007.66;;;9.61;87.85
47054;BME280;32811;52.382;5.270;2023-04-26T11:56:57;102017.13;;;9.62;83.86
47054;BME280;32811;52.382;5.270;2023-04-26T11:59:28;102016.38;;;9.34;81.29
47054;BME280;32811;52.382;5.270;2023-04-26T12:01:56;102023.19;;;9.04;87.73
47054;BME280;32811;52.382;5.270;2023-04-26T12:04:29;102023.78;;;8.93;91.28
47054;BME280;32811;52.382;5.270;2023-04-26T12:06:57;102002.59;;;8.75;92.27
47054;BME280;32811;52.382;5.270;2023-04-26T12:09:27;102017.81;;;8.67;96.12
47054;BME280;32811;52.382;5.270;2023-04-26T12:12:02;102002.00;;;8.55;100.00
47054;BME280;32811;52.382;5.270;2023-04-26T12:14:35;102027.03;;;8.61;100.00
47054;BME280;32811;52.382;5.270;2023-04-26T12:17:03;102035.06;;;8.70;100.00
47054;BME280;32811;52.382;5.270;2023-04-26T12:19:34;102024.31;;;8.83;97.10
47054;BME280;32811;52.382;5.270;2023-04-26T12:22:02;102004.75;;;8.61;100.00
47054;BME280;32811;52.382;5.270;2023-04-26T12:24:30;102017.88;;;8.69;100.00
47054;BME280;32811;52.382;5.270;2023-04-26T12:27:03;102031.09;;;8.81;100.00
47054;BME280;32811;52.382;5.270;2023-04-26T12:29:31;102010.78;;;8.90;100.00
47054;BME280;32811;52.382;5.270;2023-04-26T12:31:59;101999.06;;;9.00;92.93
47054;BME280;32811;52.382;5.270;2023-04-26T12:34:27;101995.06;;;9.10;95.07
47054;BME280;32811;52.382;5.270;2023-04-26T12:36:53;102033.59;;;9.35;93.23
47054;BME280;32811;52.382;5.270;2023-04-26T12:39:20;102027.78;;;9.43;92.27
47054;BME280;32811;52.382;5.270;2023-04-26T12:41:47;102023.53;;;9.45;92.21
47054;BME280;32811;52.382;5.270;2023-04-26T12:44:14;102025.69;;;9.61;95.66
47054;BME280;32811;52.382;5.270;2023-04-26T12:46:41;101999.88;;;9.60;85.24
47054;BME280;32811;52.382;5.270;2023-04-26T12:49:08;102030.81;;;9.91;75.98
47054;BME280;32811;52.382;5.270;2023-04-26T12:51:34;102028.59;;;10.05;83.35
47054;BME280;32811;52.382;5.270;2023-04-26T12:54:01;102042.06;;;9.95;78.37
47054;BME280;32811;52.382;5.270;2023-04-26T12:56:28;102039.53;;;9.96;83.13
47054;BME280;32811;52.382;5.270;2023-04-26T12:58:55;102029.44;;;9.72;73.34
47054;BME280;32811;52.382;5.270;2023-04-26T13:01:22;102026.38;;;9.86;78.51
47054;BME280;32811;52.382;5.270;2023-04-26T13:03:49;102034.03;;;9.83;86.48
47054;BME280;32811;52.382;5.270;2023-04-26T13:06:16;102038.91;;;10.05;84.52
47054;BME280;32811;52.382;5.270;2023-04-26T13:08:43;102023.66;;;10.14;78.43
47054;BME280;32811;52.382;5.270;2023-04-26T13:11:09;102027.91;;;10.12;79.48
47054;BME280;32811;52.382;5.270;2023-04-26T13:13:36;101993.75;;;9.88;79.23
47054;BME280;32811;52.382;5.270;2023-04-26T13:16:09;102019.69;;;9.62;81.44